sensor_id;sensor_type;location;lat;lon;timestamp;temperature;humidity
18191;DHT22;47004;51.366;12.348;2023-04-09T00:00:23;4.60;99.90
18191;DHT22;47004;51.366;12.348;2023-04-09T00:02:25;4.60;99.90
18191;DHT22;47004;51.366;12.348;2023-04-09T00:04:28;4.60;99.90
18191;DHT22;47004;51.366;12.348;2023-04-09T00:06:30;4.50;99.90
18191;DHT22;47004;51.366;12.348;2023-04-09T00:08:32;4.50;99.90
18191;DHT22;47004;51.366;12.348;2023-04-09T00:10:35;4.50;99.90
18191;DHT22;47004;51.366;12.348;2023-04-09T00:12:37;4.40;99.90
18191;DHT22;47004;51.366;12.348;2023-04-09T00:14:39;4.40;99.90
18191;DHT22;47004;51.366;12.348;2023-04-09T00:16:41;4.40;99.90
18191;DHT22;47004;51.366;12.348;2023-04-09T00:18:43;4.30;99.90
18191;DHT22;47004;51.366;12.348;2023-04-09T00:20:46;4.30;99.90
18191;DHT22;47004;51.366;12.348;2023-04-09T00:22:48;4.30;99.90
18191;DHT22;47004;51.366;12.348;2023-04-09T00:24:51;4.20;99.90
18191;DHT22;47004;51.366;12.348;2023-04-09T00:26:53;4.20;99.90
18191;DHT22;47004;51.366;12.348;2023-04-09T00:28:55;4.20;99.90
18191;DHT22;47004;51.366;12.348;2023-04-09T00:30:57;4.10;99.90
18191;DHT22;47004;51.366;12.348;2023-04-09T00:32:58;4.10;99.90
18191;DHT22;47004;51.366;12.348;2023-04-09T00:35:01;4.10;99.90
18191;DHT22;47004;51.366;12.348;2023-04-09T00:37:04;4.10;99.90
18191;DHT22;47004;51.366;12.348;2023-04-09T00:39:06;4.00;99.90
18191;DHT22;47004;51.366;12.348;2023-04-09T00:41:08;4.00;99.90
18191;DHT22;47004;51.366;12.348;2023-04-09T00:43:10;4.00;99.90
18191;DHT22;47004;51.366;12.348;2023-04-09T00:45:12;4.00;99.90
18191;DHT22;47004;51.366;12.348;2023-04-09T00:47:14;4.00;99.90
18191;DHT22;47004;51.366;12.348;2023-04-09T00:49:16;3.90;99.90
18191;DHT22;47004;51.366;12.348;2023-04-09T00:51:18;3.90;99.90
18191;DHT22;47004;51.366;12.348;2023-04-09T00:53:22;3.80;99.90
18191;DHT22;47004;51.366;12.348;2023-04-09T00:55:24;3.80;99.90
18191;DHT22;47004;51.366;12.348;2023-04-09T00:57:26;3.80;99.90
18191;DHT22;47004;51.366;12.348;2023-04-09T00:59:29;3.80;99.90
18191;DHT22;47004;51.366;12.348;2023-04-09T01:01:31;3.70;99.90
18191;DHT22;47004;51.366;12.348;2023-04-09T01:03:33;3.70;99.90
18191;DHT22;47004;51.366;12.348;2023-04-09T01:05:43;3.70;99.90
18191;DHT22;47004;51.366;12.348;2023-04-09T01:07:55;3.60;99.90
18191;DHT22;47004;51.366;12.348;2023-04-09T01:10:12;3.60;99.90
18191;DHT22;47004;51.366;12.348;2023-04-09T01:12:22;3.60;99.90
18191;DHT22;47004;51.366;12.348;2023-04-09T01:14:31;3.50;99.90
18191;DHT22;47004;51.366;12.348;2023-04-09T01:16:36;3.50;99.90
18191;DHT22;47004;51.366;12.348;2023-04-09T01:18:43;3.50;99.90
18191;DHT22;47004;51.366;12.348;2023-04-09T01:20:51;3.40;99.90
18191;DHT22;47004;51.366;12.348;2023-04-09T01:23:00;3.40;99.90
18191;DHT22;47004;51.366;12.348;2023-04-09T01:25:14;3.40;99.90
18191;DHT22;47004;51.366;12.348;2023-04-09T01:27:20;3.40;99.90
18191;DHT22;47004;51.366;12.348;2023-04-09T01:29:24;3.30;99.90
18191;DHT22;47004;51.366;12.348;2023-04-09T01:31:28;3.30;99.90
18191;DHT22;47004;51.366;12.348;2023-04-09T01:33:31;3.30;99.90
18191;DHT22;47004;51.366;12.348;2023-04-09T01:35:34;3.30;99.90
18191;DHT22;47004;51.366;12.348;2023-04-09T01:37:37;3.30;99.90
18191;DHT22;47004;51.366;12.348;2023-04-09T01:39:40;3.20;99.90
18191;DHT22;47004;51.366;12.348;2023-04-09T01:41:42;3.20;99.90
18191;DHT22;47004;51.366;12.348;2023-04-09T01:43:44;3.20;99.90
18191;DHT22;47004;51.366;12.348;2023-04-09T01:45:49;3.20;99.90
18191;DHT22;47004;51.366;12.348;2023-04-09T01:47:52;3.10;99.90
18191;DHT22;47004;51.366;12.348;2023-04-09T01:49:55;3.10;99.90
18191;DHT22;47004;51.366;12.348;2023-04-09T01:51:58;3.10;99.90
18191;DHT22;47004;51.366;12.348;2023-04-09T01:54:00;3.10;99.90
18191;DHT22;47004;51.366;12.348;2023-04-09T01:56:02;3.00;99.90
18191;DHT22;47004;51.366;12.348;2023-04-09T01:58:05;3.00;99.90
18191;DHT22;47004;51.366;12.348;2023-04-09T02:00:08;3.00;99.90
18191;DHT22;47004;51.366;12.348;2023-04-09T02:02:23;3.00;99.90
18191;DHT22;47004;51.366;12.348;2023-04-09T02:04:32;2.90;99.90
18191;DHT22;47004;51.366;12.348;2023-04-09T02:06:39;2.90;99.90
18191;DHT22;47004;51.366;12.348;2023-04-09T02:08:43;2.90;99.90
18191;DHT22;47004;51.366;12.348;2023-04-09T02:10:50;2.90;99.90
18191;DHT22;47004;51.366;12.348;2023-04-09T02:12:55;2.90;99.90
18191;DHT22;47004;51.366;12.348;2023-04-09T02:14:59;2.80;99.90
18191;DHT22;47004;51.366;12.348;2023-04-09T02:17:02;2.80;99.90
18191;DHT22;47004;51.366;12.348;2023-04-09T02:19:06;2.80;99.90
18191;DHT22;47004;51.366;12.348;2023-04-09T02:21:09;2.80;99.90
18191;DHT22;47004;51.366;12.348;2023-04-09T02:23:14;2.80;99.90
18191;DHT22;47004;51.366;12.348;2023-04-09T02:25:16;2.80;99.90
18191;DHT22;47004;51.366;12.348;2023-04-09T02:27:18;2.80;99.90
18191;DHT22;47004;51.366;12.348;2023-04-09T02:29:20;2.70;99.90
18191;DHT22;47004;51.366;12.348;2023-04-09T02:31:22;2.70;99.90
18191;DHT22;47004;51.366;12.348;2023-04-09T02:33:24;2.70;99.90
18191;DHT22;47004;51.366;12.348;2023-04-09T02:35:27;2.70;99.90
18191;DHT22;47004;51.366;12.348;2023-04-09T02:37:29;2.70;99.90
18191;DHT22;47004;51.366;12.348;2023-04-09T02:39:31;2.60;99.90
18191;DHT22;47004;51.366;12.348;2023-04-09T02:41:33;2.60;99.90
18191;DHT22;47004;51.366;12.348;2023-04-09T02:43:35;2.60;99.90
18191;DHT22;47004;51.366;12.348;2023-04-09T02:45:37;2.60;99.90
18191;DHT22;47004;51.366;12.348;2023-04-09T02:47:39;2.60;99.90
18191;DHT22;47004;51.366;12.348;2023-04-09T02:49:41;2.50;99.90
18191;DHT22;47004;51.366;12.348;2023-04-09T02:51:45;2.50;99.90
18191;DHT22;47004;51.366;12.348;2023-04-09T02:53:46;2.50;99.90
18191;DHT22;47004;51.366;12.348;2023-04-09T02:55:48;2.50;99.90
18191;DHT22;47004;51.366;12.348;2023-04-09T02:57:50;2.50;99.90
18191;DHT22;47004;51.366;12.348;2023-04-09T02:59:52;2.40;99.90
18191;DHT22;47004;51.366;12.348;2023-04-09T03:01:54;2.40;99.90
18191;DHT22;47004;51.366;12.348;2023-04-09T03:03:56;2.40;99.90
18191;DHT22;47004;51.366;12.348;2023-04-09T03:05:58;2.40;99.90
18191;DHT22;47004;51.366;12.348;2023-04-09T03:08:01;2.40;99.90
18191;DHT22;47004;51.366;12.348;2023-04-09T03:10:03;2.40;99.90
18191;DHT22;47004;51.366;12.348;2023-04-09T03:12:05;2.30;99.90
18191;DHT22;47004;51.366;12.348;2023-04-09T03:14:07;2.30;99.90
18191;DHT22;47004;51.366;12.348;2023-04-09T03:16:09;2.30;99.90
18191;DHT22;47004;51.366;12.348;2023-04-09T03:18:11;2.30;99.90
18191;DHT22;47004;51.366;12.348;2023-04-09T03:20:13;2.20;99.90
18191;DHT22;47004;51.366;12.348;2023-04-09T03:22:15;2.20;99.90
18191;DHT22;47004;51.366;12.348;2023-04-09T03:24:18;2.20;99.90
18191;DHT22;47004;51.366;12.348;2023-04-09T03:26:20;2.20;99.90
18191;DHT22;47004;51.366;12.348;2023-04-09T03:28:22;2.20;99.90
18191;DHT22;47004;51.366;12.348;2023-04-09T03:30:24;2.10;99.90
18191;DHT22;47004;51.366;12.348;2023-04-09T03:32:26;2.10;99.90
18191;DHT22;47004;51.366;12.348;2023-04-09T03:34:28;2.10;99.90
18191;DHT22;47004;51.366;12.348;2023-04-09T03:36:30;2.10;99.90
18191;DHT22;47004;51.366;12.348;2023-04-09T03:38:32;2.10;99.90
18191;DHT22;47004;51.366;12.348;2023-04-09T03:40:35;2.10;99.90
18191;DHT22;47004;51.366;12.348;2023-04-09T03:42:37;2.00;99.90
18191;DHT22;47004;51.366;12.348;2023-04-09T03:44:39;2.00;99.90
18191;DHT22;47004;51.366;12.348;2023-04-09T03:46:41;2.00;99.90
18191;DHT22;47004;51.366;12.348;2023-04-09T03:48:43;2.00;99.90
18191;DHT22;47004;51.366;12.348;2023-04-09T03:50:45;2.00;99.90
18191;DHT22;47004;51.366;12.348;2023-04-09T03:52:47;2.00;99.90
18191;DHT22;47004;51.366;12.348;2023-04-09T03:54:49;2.00;99.90
18191;DHT22;47004;51.366;12.348;2023-04-09T03:56:53;1.90;99.90
18191;DHT22;47004;51.366;12.348;2023-04-09T03:58:55;1.90;99.90
18191;DHT22;47004;51.366;12.348;2023-04-09T04:00:57;1.90;99.90
18191;DHT22;47004;51.366;12.348;2023-04-09T04:02:59;1.90;99.90
18191;DHT22;47004;51.366;12.348;2023-04-09T04:05:01;1.90;99.90
18191;DHT22;47004;51.366;12.348;2023-04-09T04:07:03;1.90;99.90
18191;DHT22;47004;51.366;12.348;2023-04-09T04:09:05;1.90;99.90
18191;DHT22;47004;51.366;12.348;2023-04-09T04:11:07;1.90;99.90
18191;DHT22;47004;51.366;12.348;2023-04-09T04:13:10;1.90;99.90
18191;DHT22;47004;51.366;12.348;2023-04-09T04:15:12;1.90;99.90
18191;DHT22;47004;51.366;12.348;2023-04-09T04:17:15;1.80;99.90
18191;DHT22;47004;51.366;12.348;2023-04-09T04:19:17;1.80;99.90
18191;DHT22;47004;51.366;12.348;2023-04-09T04:21:18;1.80;99.90
18191;DHT22;47004;51.366;12.348;2023-04-09T04:23:20;1.80;99.90
18191;DHT22;47004;51.366;12.348;2023-04-09T04:25:22;1.70;99.90
18191;DHT22;47004;51.366;12.348;2023-04-09T04:27:24;1.70;99.90
18191;DHT22;47004;51.366;12.348;2023-04-09T04:29:28;1.70;99.90
18191;DHT22;47004;51.366;12.348;2023-04-09T04:31:29;1.70;99.90
18191;DHT22;47004;51.366;12.348;2023-04-09T04:33:32;1.70;99.90
18191;DHT22;47004;51.366;12.348;2023-04-09T04:35:34;1.70;99.90
18191;DHT22;47004;51.366;12.348;2023-04-09T04:37:36;1.70;99.90
18191;DHT22;47004;51.366;12.348;2023-04-09T04:39:37;1.70;99.90
18191;DHT22;47004;51.366;12.348;2023-04-09T04:41:40;1.70;99.90
18191;DHT22;47004;51.366;12.348;2023-04-09T04:43:41;1.70;99.90
18191;DHT22;47004;51.366;12.348;2023-04-09T04:45:45;1.60;99.90
18191;DHT22;47004;51.366;12.348;2023-04-09T04:47:47;1.80;99.90
18191;DHT22;47004;51.366;12.348;2023-04-09T04:49:48;1.60;99.90
18191;DHT22;47004;51.366;12.348;2023-04-09T04:51:50;1.60;99.90
18191;DHT22;47004;51.366;12.348;2023-04-09T04:53:55;1.70;99.90
18191;DHT22;47004;51.366;12.348;2023-04-09T04:55:57;1.60;99.90
18191;DHT22;47004;51.366;12.348;2023-04-09T04:57:59;1.60;99.90
18191;DHT22;47004;51.366;12.348;2023-04-09T05:00:01;1.60;99.90
18191;DHT22;47004;51.366;12.348;2023-04-09T05:02:04;1.80;99.90
18191;DHT22;47004;51.366;12.348;2023-04-09T05:04:07;1.70;99.90
18191;DHT22;47004;51.366;12.348;2023-04-09T05:06:09;1.70;99.90
18191;DHT22;47004;51.366;12.348;2023-04-09T05:08:11;1.70;99.90
18191;DHT22;47004;51.366;12.348;2023-04-09T05:10:12;1.60;99.90
18191;DHT22;47004;51.366;12.348;2023-04-09T05:12:14;1.60;99.90
18191;DHT22;47004;51.366;12.348;2023-04-09T05:14:17;1.60;99.90
18191;DHT22;47004;51.366;12.348;2023-04-09T05:16:21;1.60;99.90
18191;DHT22;47004;51.366;12.348;2023-04-09T05:18:24;1.60;99.90
18191;DHT22;47004;51.366;12.348;2023-04-09T05:20:26;1.60;99.90
18191;DHT22;47004;51.366;12.348;2023-04-09T05:22:28;1.60;99.90
18191;DHT22;47004;51.366;12.348;2023-04-09T05:24:30;1.60;99.90
18191;DHT22;47004;51.366;12.348;2023-04-09T05:26:33;1.70;99.90
18191;DHT22;47004;51.366;12.348;2023-04-09T05:28:35;1.60;99.90
18191;DHT22;47004;51.366;12.348;2023-04-09T05:30:37;1.60;99.90
18191;DHT22;47004;51.366;12.348;2023-04-09T05:32:39;1.60;99.90
18191;DHT22;47004;51.366;12.348;2023-04-09T05:34:42;1.60;99.90
18191;DHT22;47004;51.366;12.348;2023-04-09T05:36:44;1.60;99.90
18191;DHT22;47004;51.366;12.348;2023-04-09T05:38:47;1.60;99.90
18191;DHT22;47004;51.366;12.348;2023-04-09T05:40:49;1.60;99.90
18191;DHT22;47004;51.366;12.348;2023-04-09T05:42:51;1.70;99.90
18191;DHT22;47004;51.366;12.348;2023-04-09T05:44:52;1.60;99.90
18191;DHT22;47004;51.366;12.348;2023-04-09T05:46:55;1.70;99.90
18191;DHT22;47004;51.366;12.348;2023-04-09T05:48:57;1.70;99.90
18191;DHT22;47004;51.366;12.348;2023-04-09T05:51:00;1.70;99.90
18191;DHT22;47004;51.366;12.348;2023-04-09T05:53:02;1.70;99.90
18191;DHT22;47004;51.366;12.348;2023-04-09T05:55:05;1.70;99.90
18191;DHT22;47004;51.366;12.348;2023-04-09T05:57:09;1.80;99.90
18191;DHT22;47004;51.366;12.348;2023-04-09T05:59:11;1.80;99.90
18191;DHT22;47004;51.366;12.348;2023-04-09T06:01:13;1.80;99.90
18191;DHT22;47004;51.366;12.348;2023-04-09T06:03:15;1.80;99.90
18191;DHT22;47004;51.366;12.348;2023-04-09T06:05:17;1.90;99.90
18191;DHT22;47004;51.366;12.348;2023-04-09T06:07:23;1.80;99.90
18191;DHT22;47004;51.366;12.348;2023-04-09T06:09:25;1.90;99.90
18191;DHT22;47004;51.366;12.348;2023-04-09T06:11:28;1.90;99.90
18191;DHT22;47004;51.366;12.348;2023-04-09T06:13:30;1.90;99.90
18191;DHT22;47004;51.366;12.348;2023-04-09T06:15:32;2.00;99.90
18191;DHT22;47004;51.366;12.348;2023-04-09T06:17:33;2.00;99.90
18191;DHT22;47004;51.366;12.348;2023-04-09T06:19:35;2.00;99.90
18191;DHT22;47004;51.366;12.348;2023-04-09T06:21:37;2.10;99.90
18191;DHT22;47004;51.366;12.348;2023-04-09T06:23:42;2.10;99.90
18191;DHT22;47004;51.366;12.348;2023-04-09T06:25:44;2.10;99.90
18191;DHT22;47004;51.366;12.348;2023-04-09T06:27:46;2.10;99.90
18191;DHT22;47004;51.366;12.348;2023-04-09T06:29:48;2.10;99.90
18191;DHT22;47004;51.366;12.348;2023-04-09T06:31:50;2.20;99.90
18191;DHT22;47004;51.366;12.348;2023-04-09T06:33:55;2.20;99.90
18191;DHT22;47004;51.366;12.348;2023-04-09T06:36:04;2.20;99.90
18191;DHT22;47004;51.366;12.348;2023-04-09T06:38:09;2.20;99.90
18191;DHT22;47004;51.366;12.348;2023-04-09T06:40:13;2.20;99.90
18191;DHT22;47004;51.366;12.348;2023-04-09T06:42:15;2.30;99.90
18191;DHT22;47004;51.366;12.348;2023-04-09T06:44:17;2.40;99.90
18191;DHT22;47004;51.366;12.348;2023-04-09T06:46:21;2.40;99.90
18191;DHT22;47004;51.366;12.348;2023-04-09T06:48:23;2.40;99.90
18191;DHT22;47004;51.366;12.348;2023-04-09T06:50:28;2.50;99.90
18191;DHT22;47004;51.366;12.348;2023-04-09T06:52:30;2.50;99.90
18191;DHT22;47004;51.366;12.348;2023-04-09T06:54:32;2.50;99.90
18191;DHT22;47004;51.366;12.348;2023-04-09T06:56:35;2.50;99.90
18191;DHT22;47004;51.366;12.348;2023-04-09T06:58:37;2.60;99.90
18191;DHT22;47004;51.366;12.348;2023-04-09T07:00:41;2.60;99.90
18191;DHT22;47004;51.366;12.348;2023-04-09T07:02:43;2.70;99.90
18191;DHT22;47004;51.366;12.348;2023-04-09T07:04:45;2.70;99.90
18191;DHT22;47004;51.366;12.348;2023-04-09T07:06:48;2.80;99.90
18191;DHT22;47004;51.366;12.348;2023-04-09T07:08:51;2.80;99.90
18191;DHT22;47004;51.366;12.348;2023-04-09T07:10:53;2.90;99.90
18191;DHT22;47004;51.366;12.348;2023-04-09T07:12:56;2.90;99.90
18191;DHT22;47004;51.366;12.348;2023-04-09T07:14:59;3.00;99.90
18191;DHT22;47004;51.366;12.348;2023-04-09T07:17:01;3.00;99.90
18191;DHT22;47004;51.366;12.348;2023-04-09T07:19:03;3.10;99.90
18191;DHT22;47004;51.366;12.348;2023-04-09T07:21:06;3.10;99.90
18191;DHT22;47004;51.366;12.348;2023-04-09T07:23:08;3.20;99.90
18191;DHT22;47004;51.366;12.348;2023-04-09T07:25:11;3.20;99.90
18191;DHT22;47004;51.366;12.348;2023-04-09T07:27:13;3.30;99.90
18191;DHT22;47004;51.366;12.348;2023-04-09T07:29:16;3.40;99.90
18191;DHT22;47004;51.366;12.348;2023-04-09T07:31:20;3.40;99.90
18191;DHT22;47004;51.366;12.348;2023-04-09T07:33:22;3.50;99.90
18191;DHT22;47004;51.366;12.348;2023-04-09T07:35:24;3.50;99.90
18191;DHT22;47004;51.366;12.348;2023-04-09T07:37:26;3.60;99.90
18191;DHT22;47004;51.366;12.348;2023-04-09T07:39:28;3.70;99.90
18191;DHT22;47004;51.366;12.348;2023-04-09T07:41:30;3.80;99.90
18191;DHT22;47004;51.366;12.348;2023-04-09T07:43:32;3.90;99.90
18191;DHT22;47004;51.366;12.348;2023-04-09T07:45:35;4.00;99.90
18191;DHT22;47004;51.366;12.348;2023-04-09T07:47:37;4.10;99.90
18191;DHT22;47004;51.366;12.348;2023-04-09T07:49:40;4.20;99.90
18191;DHT22;47004;51.366;12.348;2023-04-09T07:51:42;4.20;99.90
18191;DHT22;47004;51.366;12.348;2023-04-09T07:53:44;4.20;99.90
18191;DHT22;47004;51.366;12.348;2023-04-09T07:55:46;4.30;99.90
18191;DHT22;47004;51.366;12.348;2023-04-09T07:57:48;4.40;99.90
18191;DHT22;47004;51.366;12.348;2023-04-09T07:59:51;4.40;99.90
18191;DHT22;47004;51.366;12.348;2023-04-09T08:01:56;4.50;99.90
18191;DHT22;47004;51.366;12.348;2023-04-09T08:03:59;4.60;99.90
18191;DHT22;47004;51.366;12.348;2023-04-09T08:06:01;4.60;99.90
18191;DHT22;47004;51.366;12.348;2023-04-09T08:08:04;4.70;99.90
18191;DHT22;47004;51.366;12.348;2023-04-09T08:10:07;4.80;99.90
18191;DHT22;47004;51.366;12.348;2023-04-09T08:12:13;4.80;99.90
18191;DHT22;47004;51.366;12.348;2023-04-09T08:14:16;4.90;99.90
18191;DHT22;47004;51.366;12.348;2023-04-09T08:16:18;5.00;99.90
18191;DHT22;47004;51.366;12.348;2023-04-09T08:18:22;5.10;99.90
18191;DHT22;47004;51.366;12.348;2023-04-09T08:20:24;5.20;99.90
18191;DHT22;47004;51.366;12.348;2023-04-09T08:22:27;5.20;99.90
18191;DHT22;47004;51.366;12.348;2023-04-09T08:24:29;5.30;99.90
18191;DHT22;47004;51.366;12.348;2023-04-09T08:26:31;5.40;99.90
18191;DHT22;47004;51.366;12.348;2023-04-09T08:28:33;5.50;99.90
18191;DHT22;47004;51.366;12.348;2023-04-09T08:30:36;5.50;99.90
18191;DHT22;47004;51.366;12.348;2023-04-09T08:32:38;5.50;99.90
18191;DHT22;47004;51.366;12.348;2023-04-09T08:34:41;5.70;99.90
18191;DHT22;47004;51.366;12.348;2023-04-09T08:36:44;5.70;99.90
18191;DHT22;47004;51.366;12.348;2023-04-09T08:38:47;5.80;99.90
18191;DHT22;47004;51.366;12.348;2023-04-09T08:40:49;5.80;99.90
18191;DHT22;47004;51.366;12.348;2023-04-09T08:42:54;5.90;99.90
18191;DHT22;47004;51.366;12.348;2023-04-09T08:44:56;5.90;99.90
18191;DHT22;47004;51.366;12.348;2023-04-09T08:46:59;6.00;99.90
18191;DHT22;47004;51.366;12.348;2023-04-09T08:49:01;6.10;99.90
18191;DHT22;47004;51.366;12.348;2023-04-09T08:51:04;6.10;99.90
18191;DHT22;47004;51.366;12.348;2023-04-09T08:53:07;6.30;99.90
18191;DHT22;47004;51.366;12.348;2023-04-09T08:55:11;6.30;99.90
18191;DHT22;47004;51.366;12.348;2023-04-09T08:57:12;6.40;99.90
18191;DHT22;47004;51.366;12.348;2023-04-09T08:59:15;6.50;99.90
18191;DHT22;47004;51.366;12.348;2023-04-09T09:01:22;6.50;99.90
18191;DHT22;47004;51.366;12.348;2023-04-09T09:03:24;6.60;99.90
18191;DHT22;47004;51.366;12.348;2023-04-09T09:05:35;6.70;99.90
18191;DHT22;47004;51.366;12.348;2023-04-09T09:07:52;6.80;99.90
18191;DHT22;47004;51.366;12.348;2023-04-09T09:09:56;6.90;99.90
18191;DHT22;47004;51.366;12.348;2023-04-09T09:11:58;7.00;99.90
18191;DHT22;47004;51.366;12.348;2023-04-09T09:14:02;7.10;99.90
18191;DHT22;47004;51.366;12.348;2023-04-09T09:16:12;7.10;99.90
18191;DHT22;47004;51.366;12.348;2023-04-09T09:18:16;7.30;99.90
18191;DHT22;47004;51.366;12.348;2023-04-09T09:20:19;7.30;99.90
18191;DHT22;47004;51.366;12.348;2023-04-09T09:22:21;7.40;99.90
18191;DHT22;47004;51.366;12.348;2023-04-09T09:24:25;7.50;99.90
18191;DHT22;47004;51.366;12.348;2023-04-09T09:26:28;7.60;99.90
18191;DHT22;47004;51.366;12.348;2023-04-09T09:28:34;7.70;99.90
18191;DHT22;47004;51.366;12.348;2023-04-09T09:30:37;7.70;99.90
18191;DHT22;47004;51.366;12.348;2023-04-09T09:32:40;7.70;99.90
18191;DHT22;47004;51.366;12.348;2023-04-09T09:34:57;7.80;99.90
18191;DHT22;47004;51.366;12.348;2023-04-09T09:36:59;7.80;99.90
18191;DHT22;47004;51.366;12.348;2023-04-09T09:39:01;7.90;99.90
18191;DHT22;47004;51.366;12.348;2023-04-09T09:41:17;8.00;99.90
18191;DHT22;47004;51.366;12.348;2023-04-09T09:43:19;8.00;99.90
18191;DHT22;47004;51.366;12.348;2023-04-09T09:45:21;8.10;99.90
18191;DHT22;47004;51.366;12.348;2023-04-09T09:47:23;8.10;99.90
18191;DHT22;47004;51.366;12.348;2023-04-09T09:49:27;8.10;99.90
18191;DHT22;47004;51.366;12.348;2023-04-09T09:51:30;8.30;99.90
18191;DHT22;47004;51.366;12.348;2023-04-09T09:53:35;8.30;99.90
18191;DHT22;47004;51.366;12.348;2023-04-09T09:55:38;8.30;99.90
18191;DHT22;47004;51.366;12.348;2023-04-09T09:57:43;8.40;99.90
18191;DHT22;47004;51.366;12.348;2023-04-09T09:59:50;8.50;99.90
18191;DHT22;47004;51.366;12.348;2023-04-09T10:01:57;8.50;99.90
18191;DHT22;47004;51.366;12.348;2023-04-09T10:04:01;8.60;99.90
18191;DHT22;47004;51.366;12.348;2023-04-09T10:06:04;8.60;99.90
18191;DHT22;47004;51.366;12.348;2023-04-09T10:08:08;8.70;99.90
18191;DHT22;47004;51.366;12.348;2023-04-09T10:10:10;8.80;99.90
18191;DHT22;47004;51.366;12.348;2023-04-09T10:12:12;8.90;99.90
18191;DHT22;47004;51.366;12.348;2023-04-09T10:14:16;8.90;99.90
18191;DHT22;47004;51.366;12.348;2023-04-09T10:16:20;9.00;99.90
18191;DHT22;47004;51.366;12.348;2023-04-09T10:18:22;9.10;99.90
18191;DHT22;47004;51.366;12.348;2023-04-09T10:20:27;9.10;99.90
18191;DHT22;47004;51.366;12.348;2023-04-09T10:22:34;9.20;99.90
18191;DHT22;47004;51.366;12.348;2023-04-09T10:24:36;9.30;99.90
18191;DHT22;47004;51.366;12.348;2023-04-09T10:26:40;9.30;99.90
18191;DHT22;47004;51.366;12.348;2023-04-09T10:28:42;9.40;99.90
18191;DHT22;47004;51.366;12.348;2023-04-09T10:30:45;9.50;99.90
18191;DHT22;47004;51.366;12.348;2023-04-09T10:32:47;9.60;99.90
18191;DHT22;47004;51.366;12.348;2023-04-09T10:34:50;9.80;99.90
18191;DHT22;47004;51.366;12.348;2023-04-09T10:36:54;9.80;99.90
18191;DHT22;47004;51.366;12.348;2023-04-09T10:38:56;9.90;99.90
18191;DHT22;47004;51.366;12.348;2023-04-09T10:40:58;10.00;99.90
18191;DHT22;47004;51.366;12.348;2023-04-09T10:43:08;10.10;99.90
18191;DHT22;47004;51.366;12.348;2023-04-09T10:45:11;10.20;99.90
18191;DHT22;47004;51.366;12.348;2023-04-09T10:47:30;10.30;99.90
18191;DHT22;47004;51.366;12.348;2023-04-09T10:49:35;10.50;99.90
18191;DHT22;47004;51.366;12.348;2023-04-09T10:51:38;10.50;99.90
18191;DHT22;47004;51.366;12.348;2023-04-09T10:53:40;10.60;99.90
18191;DHT22;47004;51.366;12.348;2023-04-09T10:55:47;10.80;99.90
18191;DHT22;47004;51.366;12.348;2023-04-09T10:57:49;10.90;99.90
18191;DHT22;47004;51.366;12.348;2023-04-09T10:59:52;11.00;99.90
18191;DHT22;47004;51.366;12.348;2023-04-09T11:01:55;11.10;99.90
18191;DHT22;47004;51.366;12.348;2023-04-09T11:04:10;11.20;99.90
18191;DHT22;47004;51.366;12.348;2023-04-09T11:06:14;11.20;99.90
18191;DHT22;47004;51.366;12.348;2023-04-09T11:08:20;11.40;99.90
18191;DHT22;47004;51.366;12.348;2023-04-09T11:10:22;11.50;99.90
18191;DHT22;47004;51.366;12.348;2023-04-09T11:12:24;11.60;99.90
18191;DHT22;47004;51.366;12.348;2023-04-09T11:14:29;11.70;99.90
18191;DHT22;47004;51.366;12.348;2023-04-09T11:16:31;11.90;99.90
18191;DHT22;47004;51.366;12.348;2023-04-09T11:18:33;12.00;99.90
18191;DHT22;47004;51.366;12.348;2023-04-09T11:20:38;12.20;99.90
18191;DHT22;47004;51.366;12.348;2023-04-09T11:22:40;12.30;99.90
18191;DHT22;47004;51.366;12.348;2023-04-09T11:24:43;12.50;99.90
18191;DHT22;47004;51.366;12.348;2023-04-09T11:26:47;12.60;99.90
18191;DHT22;47004;51.366;12.348;2023-04-09T11:28:54;12.80;99.90
18191;DHT22;47004;51.366;12.348;2023-04-09T11:30:57;13.00;99.90
18191;DHT22;47004;51.366;12.348;2023-04-09T11:32:59;13.20;99.90
18191;DHT22;47004;51.366;12.348;2023-04-09T11:35:10;13.40;99.90
18191;DHT22;47004;51.366;12.348;2023-04-09T11:37:15;13.70;99.90
18191;DHT22;47004;51.366;12.348;2023-04-09T11:39:17;13.80;99.90
18191;DHT22;47004;51.366;12.348;2023-04-09T11:41:31;14.10;99.90
18191;DHT22;47004;51.366;12.348;2023-04-09T11:43:35;14.30;99.90
18191;DHT22;47004;51.366;12.348;2023-04-09T11:45:37;14.50;99.90
18191;DHT22;47004;51.366;12.348;2023-04-09T11:47:39;14.60;99.90
18191;DHT22;47004;51.366;12.348;2023-04-09T11:49:43;14.80;99.90
18191;DHT22;47004;51.366;12.348;2023-04-09T11:51:46;15.00;99.90
18191;DHT22;47004;51.366;12.348;2023-04-09T11:53:49;15.30;99.90
18191;DHT22;47004;51.366;12.348;2023-04-09T11:55:52;15.60;99.90
18191;DHT22;47004;51.366;12.348;2023-04-09T11:57:57;15.90;99.90
18191;DHT22;47004;51.366;12.348;2023-04-09T12:00:05;16.10;99.90
18191;DHT22;47004;51.366;12.348;2023-04-09T12:02:07;16.40;99.90
18191;DHT22;47004;51.366;12.348;2023-04-09T12:04:09;16.80;99.90
18191;DHT22;47004;51.366;12.348;2023-04-09T12:06:20;17.20;99.90
18191;DHT22;47004;51.366;12.348;2023-04-09T12:08:24;17.50;99.90
18191;DHT22;47004;51.366;12.348;2023-04-09T12:10:31;17.80;99.90
18191;DHT22;47004;51.366;12.348;2023-04-09T12:12:43;18.00;99.90
18191;DHT22;47004;51.366;12.348;2023-04-09T12:14:45;18.20;94.90
18191;DHT22;47004;51.366;12.348;2023-04-09T12:16:50;18.20;69.00
18191;DHT22;47004;51.366;12.348;2023-04-09T12:18:52;18.40;99.90
18191;DHT22;47004;51.366;12.348;2023-04-09T12:20:55;18.70;77.70
18191;DHT22;47004;51.366;12.348;2023-04-09T12:22:58;18.90;72.10
18191;DHT22;47004;51.366;12.348;2023-04-09T12:25:00;19.20;70.40
18191;DHT22;47004;51.366;12.348;2023-04-09T12:27:04;19.40;68.60
18191;DHT22;47004;51.366;12.348;2023-04-09T12:29:06;19.70;56.80
18191;DHT22;47004;51.366;12.348;2023-04-09T12:31:08;20.00;54.60
18191;DHT22;47004;51.366;12.348;2023-04-09T12:33:11;20.30;78.80
18191;DHT22;47004;51.366;12.348;2023-04-09T12:35:13;20.60;63.30
18191;DHT22;47004;51.366;12.348;2023-04-09T12:37:15;21.00;50.50
18191;DHT22;47004;51.366;12.348;2023-04-09T12:39:20;21.30;51.30
18191;DHT22;47004;51.366;12.348;2023-04-09T12:41:22;21.70;46.80
18191;DHT22;47004;51.366;12.348;2023-04-09T12:43:25;21.90;46.10
18191;DHT22;47004;51.366;12.348;2023-04-09T12:45:29;22.30;45.40
18191;DHT22;47004;51.366;12.348;2023-04-09T12:47:32;22.60;43.10
18191;DHT22;47004;51.366;12.348;2023-04-09T12:49:33;23.00;43.30
18191;DHT22;47004;51.366;12.348;2023-04-09T12:51:35;23.40;42.90
18191;DHT22;47004;51.366;12.348;2023-04-09T12:53:37;23.70;42.70
18191;DHT22;47004;51.366;12.348;2023-04-09T12:55:39;23.90;39.00